Chickasha Municipal Airport

About
Name: Chickasha Municipal Airport
Identifier:  CHK/KCHK
Local Time:  18. Aug 09:05 CDT
Location
Flights per Day
0 flights
Distance: 649km (403mi)
Punctuality
-100% (0 flights per day delayed)
Delay Average: 17 minutes
Current Weather
 26 C (Humidity: 83%)
  9kt (16km/h / 10mph) from 140°
  16km (10 mi.)
 
 METAR KCHK 181335Z AUTO 14009KT 10SM CLR 26/23 A2982 RMK AO2 T02610226

Current Flights

Departures
Number Departure To Airline
Arrivals
Number Arrival From Airline

Current Delays

Departures
N/A
Arrivals
N/A

Destinations

Top Destinations
Airport Flights
per week
Seats
per week
  Denver (QQH) 2 - 0 0
  Tulsa (TUL) 0 - 0 0
  Casper (CPR) 0 - 0 0
  Crestview (CEW) 0 - 0 0
  San Marcos (HYI) 0 - 0 0
  Lincoln (LNK) 0 - 0 0

Airlines & Planes

Top Airlines
Airline Flights
per Day
Seats
per Day
  Nolinor Aviation 0 -
Nordwind Airlines 0 -
  National Airlines 0 -
Top Plane Types
Model Flights Seats
Dassault Falcon 2000 0.1/day - 0
Cessna C172 0.0/day - 0